createdAt,value
2023-04-18T00:02:09.284Z,8.30
2023-04-18T00:04:36.874Z,8.40
2023-04-18T00:07:04.144Z,8.10
2023-04-18T00:09:31.460Z,7.90
2023-04-18T00:11:58.737Z,8.02
2023-04-18T00:14:26.017Z,9.02
2023-04-18T00:16:54.324Z,8.87
2023-04-18T00:19:21.713Z,9.35
2023-04-18T00:21:49.677Z,8.70
2023-04-18T00:24:17.021Z,9.25
2023-04-18T00:26:44.188Z,9.82
2023-04-18T00:29:11.477Z,8.93
2023-04-18T00:31:38.696Z,8.65
2023-04-18T00:34:06.297Z,8.63
2023-04-18T00:36:33.494Z,9.05
2023-04-18T00:39:00.813Z,9.02
2023-04-18T00:41:28.439Z,8.87
2023-04-18T00:43:55.877Z,8.93
2023-04-18T00:46:23.294Z,8.80
2023-04-18T00:48:50.841Z,8.38
2023-04-18T00:51:18.079Z,9.38
2023-04-18T00:53:46.099Z,8.60
2023-04-18T00:56:13.367Z,8.68
2023-04-18T00:58:41.066Z,9.10
2023-04-18T01:01:09.343Z,8.93
2023-04-18T01:03:37.626Z,9.18
2023-04-18T01:06:05.020Z,9.27
2023-04-18T01:08:33.625Z,9.25
2023-04-18T01:11:00.786Z,8.55
2023-04-18T01:13:28.121Z,9.38
2023-04-18T01:15:56.300Z,8.70
2023-04-18T01:18:24.398Z,8.27
2023-04-18T01:20:52.270Z,7.88
2023-04-18T01:23:20.780Z,8.00
2023-04-18T01:25:49.423Z,8.55
2023-04-18T01:28:19.624Z,8.18
2023-04-18T01:30:47.015Z,8.20
2023-04-18T01:33:14.250Z,7.85
2023-04-18T01:35:41.597Z,8.45
2023-04-18T01:38:08.848Z,8.35
2023-04-18T01:40:36.167Z,9.20
2023-04-18T01:43:03.370Z,8.30
2023-04-18T01:45:30.641Z,8.93
2023-04-18T01:47:57.930Z,8.60
2023-04-18T01:50:25.423Z,8.05
2023-04-18T01:52:52.755Z,8.25
2023-04-18T01:55:20.053Z,9.07
2023-04-18T01:57:47.406Z,8.25
2023-04-18T02:00:14.991Z,7.90
2023-04-18T02:02:42.361Z,8.48
2023-04-18T02:05:09.713Z,8.63
2023-04-18T02:07:39.973Z,8.10
2023-04-18T02:10:08.732Z,8.60
2023-04-18T02:12:35.985Z,8.23
2023-04-18T02:15:03.634Z,8.60
2023-04-18T02:17:31.077Z,7.75
2023-04-18T02:19:58.425Z,8.53
2023-04-18T02:22:25.741Z,7.75
2023-04-18T02:24:53.505Z,7.85
2023-04-18T02:27:20.817Z,7.80
2023-04-18T02:29:48.222Z,8.20
2023-04-18T02:32:15.608Z,7.93
2023-04-18T02:34:45.009Z,8.88
2023-04-18T02:37:12.226Z,7.72
2023-04-18T02:39:40.716Z,7.72
2023-04-18T02:42:07.930Z,7.47
2023-04-18T02:44:35.170Z,9.07
2023-04-18T02:47:02.408Z,8.07
2023-04-18T02:49:30.272Z,7.32
2023-04-18T02:51:58.077Z,7.93
2023-04-18T02:54:25.408Z,8.00
2023-04-18T02:57:04.568Z,7.90
2023-04-18T02:59:40.726Z,7.80
2023-04-18T03:02:21.151Z,8.00
2023-04-18T03:04:54.133Z,7.93
2023-04-18T03:07:21.850Z,8.75
2023-04-18T03:09:50.991Z,7.30
2023-04-18T03:12:26.059Z,7.55
2023-04-18T03:14:53.677Z,8.13
2023-04-18T03:17:22.244Z,6.60
2023-04-18T03:19:50.360Z,7.78
2023-04-18T03:22:20.077Z,7.77
2023-04-18T03:24:56.297Z,7.88
2023-04-18T03:27:36.981Z,7.30
2023-04-18T03:30:05.187Z,7.63
2023-04-18T03:32:34.023Z,6.45
2023-04-18T03:35:01.466Z,6.63
2023-04-18T03:37:29.261Z,7.00
2023-04-18T03:39:57.338Z,6.65
2023-04-18T03:42:27.824Z,6.78
2023-04-18T03:44:55.183Z,6.65
2023-04-18T03:47:22.603Z,7.00
2023-04-18T03:49:55.717Z,6.47
2023-04-18T03:52:25.239Z,7.57
2023-04-18T03:54:52.477Z,6.90
2023-04-18T03:57:24.557Z,6.68
2023-04-18T03:59:52.393Z,6.87
2023-04-18T04:02:19.712Z,5.97
2023-04-18T04:04:47.302Z,6.50
2023-04-18T04:07:14.862Z,6.82
2023-04-18T04:09:42.724Z,5.57
2023-04-18T04:12:10.013Z,6.83
2023-04-18T04:14:37.464Z,6.60
2023-04-18T04:17:04.685Z,5.82
2023-04-18T04:19:32.299Z,5.65
2023-04-18T04:22:10.145Z,6.75
2023-04-18T04:24:39.135Z,6.07
2023-04-18T04:27:08.231Z,6.55
2023-04-18T04:29:39.371Z,5.88
2023-04-18T04:32:08.193Z,5.90
2023-04-18T04:34:38.325Z,6.18
2023-04-18T04:37:08.379Z,6.00
2023-04-18T04:39:42.048Z,5.47
2023-04-18T04:42:28.665Z,6.28
2023-04-18T04:45:03.896Z,6.32
2023-04-18T04:47:31.355Z,5.30
2023-04-18T04:49:59.143Z,6.13
2023-04-18T04:52:26.522Z,5.15
2023-04-18T04:54:53.816Z,5.72
2023-04-18T04:57:23.960Z,5.68
2023-04-18T04:59:51.910Z,5.18
2023-04-18T05:02:23.242Z,5.20
2023-04-18T05:04:51.148Z,4.93
2023-04-18T05:07:18.498Z,4.80
2023-04-18T05:09:46.029Z,5.57
2023-04-18T05:12:13.320Z,5.18
2023-04-18T05:14:40.720Z,4.77
2023-04-18T05:17:08.613Z,5.70
2023-04-18T05:19:36.202Z,5.60
2023-04-18T05:22:03.520Z,5.53
2023-04-18T05:24:32.848Z,5.68
2023-04-18T05:27:00.250Z,5.30
2023-04-18T05:29:27.846Z,5.65
2023-04-18T05:31:55.356Z,6.47
2023-04-18T05:34:22.697Z,5.95
2023-04-18T05:36:50.074Z,6.35
2023-04-18T05:39:20.256Z,6.57
2023-04-18T05:41:51.048Z,6.32
2023-04-18T05:44:18.922Z,6.40
2023-04-18T05:46:46.849Z,5.80
2023-04-18T05:49:14.798Z,5.90
2023-04-18T05:51:42.427Z,5.77
2023-04-18T05:54:09.877Z,6.30
2023-04-18T05:56:37.250Z,6.03
2023-04-18T05:59:05.167Z,5.90
2023-04-18T06:01:32.705Z,6.30
2023-04-18T06:04:00.795Z,5.80
2023-04-18T06:06:28.346Z,6.37
2023-04-18T06:08:58.182Z,5.93
2023-04-18T06:11:25.659Z,5.38
2023-04-18T06:13:55.970Z,5.65
2023-04-18T06:16:23.570Z,5.32
2023-04-18T06:18:50.934Z,4.65
2023-04-18T06:21:21.477Z,5.53
2023-04-18T06:23:49.167Z,4.90
2023-04-18T06:26:17.498Z,5.93
2023-04-18T06:28:45.096Z,4.85
2023-04-18T06:31:12.529Z,5.18
2023-04-18T06:33:39.940Z,5.03
2023-04-18T06:36:07.732Z,5.37
2023-04-18T06:38:35.179Z,4.72
2023-04-18T06:41:02.676Z,4.97
2023-04-18T06:43:30.183Z,5.22
2023-04-18T06:45:57.707Z,4.60
2023-04-18T06:48:25.642Z,5.10
2023-04-18T06:50:53.589Z,4.72
2023-04-18T06:53:21.632Z,4.90
2023-04-18T06:55:49.404Z,4.53
2023-04-18T06:58:17.455Z,4.93
2023-04-18T07:00:47.753Z,4.40
2023-04-18T07:03:15.461Z,4.40
2023-04-18T07:05:43.338Z,4.20
2023-04-18T07:08:11.425Z,4.40
2023-04-18T07:10:39.119Z,4.50
2023-04-18T07:13:13.419Z,4.80
2023-04-18T07:15:41.792Z,5.25
2023-04-18T07:18:09.320Z,5.18
2023-04-18T07:20:37.026Z,4.93
2023-04-18T07:23:05.140Z,4.68
2023-04-18T07:25:33.051Z,4.70
2023-04-18T07:28:00.739Z,4.78
2023-04-18T07:30:28.658Z,5.22
2023-04-18T07:32:56.158Z,5.00
2023-04-18T07:35:24.164Z,4.85
2023-04-18T07:37:54.116Z,4.73
2023-04-18T07:40:21.745Z,4.43
2023-04-18T07:42:49.634Z,4.65
2023-04-18T07:45:23.366Z,4.47
2023-04-18T07:47:51.713Z,4.47
2023-04-18T07:50:19.400Z,4.87
2023-04-18T07:52:56.242Z,4.63
2023-04-18T07:55:27.361Z,4.57
2023-04-18T07:57:55.377Z,4.65
2023-04-18T08:00:23.064Z,4.78
2023-04-18T08:02:50.725Z,4.97
2023-04-18T08:05:21.816Z,4.57
2023-04-18T08:07:49.473Z,4.32
2023-04-18T08:10:24.902Z,4.50
2023-04-18T08:12:52.541Z,5.00
2023-04-18T08:15:20.062Z,4.60
2023-04-18T08:17:49.413Z,4.43
2023-04-18T08:20:17.070Z,4.65
2023-04-18T08:23:02.380Z,4.85
2023-04-18T08:25:33.397Z,4.75
2023-04-18T08:28:01.000Z,5.15
2023-04-18T08:30:29.029Z,4.60
2023-04-18T08:32:56.486Z,4.45
2023-04-18T08:35:24.705Z,4.38
2023-04-18T08:37:52.177Z,5.05
2023-04-18T08:40:20.154Z,4.97
2023-04-18T08:42:48.020Z,4.97
2023-04-18T08:45:19.095Z,5.30
2023-04-18T08:47:46.874Z,5.22
2023-04-18T08:50:15.991Z,5.43
2023-04-18T08:52:49.469Z,4.85
2023-04-18T08:55:17.306Z,5.35
2023-04-18T08:57:45.349Z,4.68
2023-04-18T09:00:13.927Z,5.90
2023-04-18T09:02:45.354Z,5.53
2023-04-18T09:05:19.205Z,4.80
2023-04-18T09:07:51.873Z,4.75
2023-04-18T09:10:33.522Z,5.32
2023-04-18T09:13:03.777Z,5.00
2023-04-18T09:15:32.126Z,4.50
2023-04-18T09:18:03.332Z,5.57
2023-04-18T09:20:37.750Z,5.20
2023-04-18T09:23:18.134Z,5.25
2023-04-18T09:25:52.421Z,4.57
2023-04-18T09:28:30.649Z,5.23
2023-04-18T09:31:15.723Z,4.50
2023-04-18T09:33:54.152Z,4.85
2023-04-18T09:36:25.213Z,5.00
2023-04-18T09:38:56.027Z,5.38
2023-04-18T09:41:24.263Z,4.68
2023-04-18T09:44:07.949Z,4.27
2023-04-18T09:46:36.234Z,4.47
2023-04-18T09:49:03.850Z,4.80
2023-04-18T09:51:32.093Z,4.72
2023-04-18T09:54:00.869Z,3.95
2023-04-18T09:56:29.170Z,4.20
2023-04-18T09:58:57.472Z,4.07
2023-04-18T10:01:27.987Z,4.45
2023-04-18T10:03:56.803Z,5.60
2023-04-18T10:06:24.729Z,4.68
2023-04-18T10:08:52.760Z,4.50
2023-04-18T10:11:20.767Z,4.37
2023-04-18T10:13:48.758Z,4.57
2023-04-18T10:16:17.011Z,4.40
2023-04-18T10:18:44.456Z,3.78
2023-04-18T10:21:11.854Z,4.15
2023-04-18T10:23:39.644Z,3.90
2023-04-18T10:26:10.069Z,3.85
2023-04-18T10:28:53.673Z,3.97
2023-04-18T10:31:23.072Z,4.10
2023-04-18T10:34:05.378Z,3.88
2023-04-18T10:36:33.566Z,4.40
2023-04-18T10:39:23.561Z,4.00
2023-04-18T10:41:51.644Z,4.03
2023-04-18T10:44:23.199Z,3.97
2023-04-18T10:46:53.918Z,4.28
2023-04-18T10:49:26.876Z,4.40
2023-04-18T10:52:03.455Z,4.07
2023-04-18T10:54:51.405Z,4.65
2023-04-18T10:57:19.061Z,4.93
2023-04-18T10:59:51.139Z,5.05
2023-04-18T11:02:30.398Z,4.93
2023-04-18T11:05:14.312Z,4.67
2023-04-18T11:07:49.493Z,4.78
2023-04-18T11:10:23.202Z,4.78
2023-04-18T11:12:52.082Z,4.85
2023-04-18T11:15:23.713Z,4.80
2023-04-18T11:18:05.190Z,4.83
2023-04-18T11:20:39.936Z,4.72
2023-04-18T11:23:16.273Z,4.65
2023-04-18T11:25:45.172Z,4.75
2023-04-18T11:28:17.445Z,4.72
2023-04-18T11:30:46.156Z,4.70
2023-04-18T11:33:15.091Z,4.82
2023-04-18T11:35:46.494Z,5.88
2023-04-18T11:38:19.743Z,5.32
2023-04-18T11:40:48.717Z,5.10
2023-04-18T11:43:21.083Z,5.87
2023-04-18T11:45:58.660Z,5.70
2023-04-18T11:48:39.810Z,5.22
2023-04-18T11:51:07.724Z,5.15
2023-04-18T11:53:36.071Z,5.35
2023-04-18T11:56:04.668Z,6.23
2023-04-18T11:58:36.869Z,5.90
2023-04-18T12:01:20.767Z,5.90
2023-04-18T12:04:06.934Z,5.75
2023-04-18T12:06:51.126Z,5.95
2023-04-18T12:09:18.778Z,6.25
2023-04-18T12:12:00.177Z,6.30
2023-04-18T12:14:28.539Z,5.35
2023-04-18T12:16:56.674Z,5.53
2023-04-18T12:19:28.359Z,6.07
2023-04-18T12:21:58.574Z,6.95
2023-04-18T12:24:26.581Z,5.57
2023-04-18T12:26:53.885Z,6.68
2023-04-18T12:29:21.316Z,6.53
2023-04-18T12:31:48.668Z,6.85
2023-04-18T12:34:16.472Z,6.75
2023-04-18T12:36:43.999Z,7.30
2023-04-18T12:39:11.391Z,5.93
2023-04-18T12:41:38.688Z,7.18
2023-04-18T12:44:06.862Z,6.38
2023-04-18T12:46:34.223Z,6.82
2023-04-18T12:49:01.806Z,6.25
2023-04-18T12:51:29.179Z,6.13
2023-04-18T12:53:56.623Z,6.55
2023-04-18T12:56:23.912Z,6.50
2023-04-18T12:58:51.331Z,7.00
2023-04-18T13:01:18.684Z,6.78
2023-04-18T13:03:53.428Z,6.70
2023-04-18T13:06:27.806Z,5.82
2023-04-18T13:08:55.110Z,6.47
2023-04-18T13:11:22.653Z,5.95
2023-04-18T13:13:50.079Z,6.50
2023-04-18T13:16:17.348Z,5.50
2023-04-18T13:18:44.880Z,5.93
2023-04-18T13:21:12.318Z,6.00
2023-04-18T13:23:39.778Z,5.78
2023-04-18T13:26:08.654Z,5.88
2023-04-18T13:28:36.724Z,9.40
2023-04-18T13:31:04.160Z,5.70
2023-04-18T13:33:31.411Z,6.47
2023-04-18T13:35:58.979Z,6.20
2023-04-18T13:38:28.734Z,6.38
2023-04-18T13:41:10.873Z,6.32
2023-04-18T13:43:40.069Z,6.97
2023-04-18T13:46:07.375Z,6.43
2023-04-18T13:48:34.811Z,5.93
2023-04-18T13:51:02.719Z,6.13
2023-04-18T13:53:31.108Z,6.05
2023-04-18T13:55:59.185Z,6.77
2023-04-18T13:58:26.538Z,7.10
2023-04-18T14:00:54.057Z,7.03
2023-04-18T14:03:21.678Z,7.20
2023-04-18T14:05:49.117Z,6.70
2023-04-18T14:08:16.625Z,7.07
2023-04-18T14:10:44.308Z,7.70
2023-04-18T14:13:11.655Z,7.53
2023-04-18T14:15:39.173Z,6.88
2023-04-18T14:18:06.709Z,6.93
2023-04-18T14:20:36.797Z,7.20
2023-04-18T14:23:04.163Z,6.95
2023-04-18T14:25:31.442Z,6.95
2023-04-18T14:28:11.040Z,7.10
2023-04-18T14:30:39.384Z,6.80
2023-04-18T14:33:07.302Z,6.73
2023-04-18T14:35:34.778Z,6.13
2023-04-18T14:38:02.137Z,6.63
2023-04-18T14:40:32.583Z,5.90
2023-04-18T14:43:00.489Z,6.60
2023-04-18T14:45:27.983Z,5.73
2023-04-18T14:47:55.938Z,5.00
2023-04-18T14:50:23.335Z,5.07
2023-04-18T14:52:51.013Z,6.50
2023-04-18T14:55:20.130Z,5.28
2023-04-18T14:57:47.476Z,5.43
2023-04-18T15:00:15.600Z,5.40
2023-04-18T15:02:43.283Z,5.47
2023-04-18T15:05:11.420Z,5.38
2023-04-18T15:07:39.084Z,5.70
2023-04-18T15:10:07.207Z,5.60
2023-04-18T15:12:35.028Z,5.30
2023-04-18T15:15:02.380Z,5.00
2023-04-18T15:17:29.900Z,5.00
2023-04-18T15:19:58.765Z,4.85
2023-04-18T15:22:26.104Z,5.20
2023-04-18T15:24:53.305Z,5.88
2023-04-18T15:27:20.839Z,6.22
2023-04-18T15:29:48.177Z,5.57
2023-04-18T15:32:15.633Z,5.45
2023-04-18T15:34:44.284Z,5.70
2023-04-18T15:37:11.574Z,5.85
2023-04-18T15:39:39.250Z,5.78
2023-04-18T15:44:54.391Z,6.15
2023-04-18T15:47:21.726Z,5.53
2023-04-18T15:49:49.091Z,6.07
2023-04-18T15:52:16.748Z,6.13
2023-04-18T15:54:44.265Z,5.47
2023-04-18T15:57:11.561Z,5.75
2023-04-18T15:59:39.022Z,5.60
2023-04-18T16:02:07.231Z,5.90
2023-04-18T16:04:34.882Z,5.50
2023-04-18T16:07:03.128Z,5.68
2023-04-18T16:09:30.740Z,5.53
2023-04-18T16:11:58.038Z,4.90
2023-04-18T16:14:25.509Z,5.20
2023-04-18T16:16:55.104Z,4.95
2023-04-18T16:19:22.457Z,4.70
2023-04-18T16:21:49.923Z,4.50
2023-04-18T16:24:17.443Z,4.40
2023-04-18T16:26:44.932Z,4.53
2023-04-18T16:29:12.257Z,4.50
2023-04-18T16:31:43.459Z,4.68
2023-04-18T16:34:10.956Z,5.15
2023-04-18T16:36:38.348Z,4.30
2023-04-18T16:39:05.823Z,4.00
2023-04-18T16:41:33.528Z,4.25
2023-04-18T16:44:00.955Z,4.13
2023-04-18T16:46:31.432Z,3.95
2023-04-18T16:48:59.102Z,4.00
2023-04-18T16:51:26.981Z,4.28
2023-04-18T16:53:55.054Z,4.10
2023-04-18T16:56:22.429Z,3.63
2023-04-18T16:58:49.853Z,3.67
2023-04-18T17:01:17.103Z,3.50
2023-04-18T17:03:44.723Z,3.67
2023-04-18T17:06:12.125Z,3.42
2023-04-18T17:08:39.585Z,3.88
2023-04-18T17:11:06.966Z,4.10
2023-04-18T17:13:39.611Z,3.93
2023-04-18T17:16:07.492Z,3.65
2023-04-18T17:18:34.794Z,4.10
2023-04-18T17:21:02.227Z,3.95
2023-04-18T17:23:31.553Z,4.07
2023-04-18T17:26:00.319Z,4.23
2023-04-18T17:28:34.089Z,4.50
2023-04-18T17:31:02.100Z,4.22
2023-04-18T17:33:29.380Z,4.45
2023-04-18T17:35:56.849Z,4.22
2023-04-18T17:38:24.172Z,3.50
2023-04-18T17:41:00.857Z,3.95
2023-04-18T17:43:28.320Z,4.18
2023-04-18T17:45:56.005Z,3.83
2023-04-18T17:48:23.419Z,4.50
2023-04-18T17:50:50.804Z,4.27
2023-04-18T17:53:18.346Z,4.50
2023-04-18T17:55:48.884Z,4.60
2023-04-18T17:58:16.960Z,4.55
2023-04-18T18:00:44.298Z,4.05
2023-04-18T18:03:15.238Z,4.60
2023-04-18T18:05:45.469Z,4.60
2023-04-18T18:08:12.841Z,4.30
2023-04-18T18:10:40.489Z,4.35
2023-04-18T18:13:07.906Z,4.82
2023-04-18T18:15:35.677Z,4.83
2023-04-18T18:18:03.064Z,4.40
2023-04-18T18:20:30.853Z,4.35
2023-04-18T18:23:01.804Z,4.60
2023-04-18T18:25:29.206Z,4.57
2023-04-18T18:27:56.395Z,4.97
2023-04-18T18:30:23.862Z,4.10
2023-04-18T18:32:51.318Z,4.97
2023-04-18T18:35:18.767Z,5.05
2023-04-18T18:37:46.025Z,4.25
2023-04-18T18:40:13.473Z,3.97
2023-04-18T18:42:41.152Z,4.30
2023-04-18T18:45:09.288Z,4.15
2023-04-18T18:47:39.009Z,4.10
2023-04-18T18:50:07.677Z,5.00
2023-04-18T18:52:34.964Z,4.40
2023-04-18T18:55:03.342Z,3.85
2023-04-18T18:57:30.682Z,4.07
2023-04-18T18:59:58.030Z,3.97
2023-04-18T19:02:25.717Z,4.28
2023-04-18T19:04:53.463Z,4.10
2023-04-18T19:07:20.777Z,4.57
2023-04-18T19:09:48.105Z,4.53
2023-04-18T19:12:15.987Z,4.68
2023-04-18T19:14:43.199Z,4.55
2023-04-18T19:17:10.413Z,4.17
2023-04-18T19:19:37.717Z,5.15
2023-04-18T19:22:06.519Z,4.10
2023-04-18T19:24:34.921Z,4.00
2023-04-18T19:27:02.956Z,4.15
2023-04-18T19:29:32.750Z,4.30
2023-04-18T19:32:00.366Z,3.38
2023-04-18T19:34:27.681Z,3.10
2023-04-18T19:36:54.989Z,3.70
2023-04-18T19:39:22.244Z,3.75
2023-04-18T19:41:49.549Z,4.40
2023-04-18T19:44:16.769Z,3.92
2023-04-18T19:46:44.127Z,4.88
2023-04-18T19:49:11.425Z,3.97
2023-04-18T19:51:39.438Z,4.13
2023-04-18T19:54:06.752Z,3.73
2023-04-18T19:56:34.144Z,4.15
2023-04-18T19:59:01.748Z,4.20
2023-04-18T20:01:29.394Z,4.20
2023-04-18T20:04:00.141Z,4.45
2023-04-18T20:06:28.073Z,4.27
2023-04-18T20:08:55.436Z,4.75
2023-04-18T20:11:22.805Z,4.97
2023-04-18T20:13:52.160Z,5.63
2023-04-18T20:16:19.608Z,5.35
2023-04-18T20:18:47.512Z,5.93
2023-04-18T20:21:14.898Z,5.07
2023-04-18T20:23:42.840Z,5.35
2023-04-18T20:26:10.292Z,5.55
2023-04-18T20:28:37.995Z,5.28
2023-04-18T20:31:05.423Z,5.60
2023-04-18T20:33:32.950Z,5.78
2023-04-18T20:36:00.391Z,5.90
2023-04-18T20:38:29.813Z,5.53
2023-04-18T20:41:00.826Z,5.45
2023-04-18T20:43:28.275Z,5.00
2023-04-18T20:45:57.664Z,5.80
2023-04-18T20:48:25.134Z,5.07
2023-04-18T20:50:52.724Z,4.65
2023-04-18T20:53:26.198Z,4.85
2023-04-18T20:55:53.470Z,5.10
2023-04-18T20:58:20.825Z,4.90
2023-04-18T21:00:48.983Z,4.78
2023-04-18T21:03:16.941Z,4.47
2023-04-18T21:05:44.963Z,4.47
2023-04-18T21:08:12.275Z,4.70
2023-04-18T21:10:39.937Z,4.82
2023-04-18T21:13:07.263Z,4.65
2023-04-18T21:15:35.623Z,4.55
2023-04-18T21:18:03.032Z,4.40
2023-04-18T21:20:30.579Z,3.83
2023-04-18T21:22:57.807Z,4.25
2023-04-18T21:25:25.234Z,4.72
2023-04-18T21:27:52.569Z,4.10
2023-04-18T21:30:19.947Z,4.70
2023-04-18T21:32:49.299Z,4.70
2023-04-18T21:35:19.370Z,4.57
2023-04-18T21:37:47.505Z,4.80
2023-04-18T21:40:14.853Z,4.90
2023-04-18T21:42:42.209Z,4.93
2023-04-18T21:45:10.234Z,5.07
2023-04-18T21:47:38.272Z,4.82
2023-04-18T21:50:06.156Z,5.43
2023-04-18T21:52:33.618Z,4.90
2023-04-18T21:55:00.880Z,4.85
2023-04-18T21:57:28.128Z,4.90
2023-04-18T21:59:59.836Z,4.38
2023-04-18T22:02:27.466Z,4.50
2023-04-18T22:04:54.736Z,4.47
2023-04-18T22:07:24.672Z,5.07
2023-04-18T22:09:51.971Z,5.23
2023-04-18T22:12:19.394Z,4.65
2023-04-18T22:14:48.485Z,5.20
2023-04-18T22:17:15.928Z,5.22
2023-04-18T22:19:44.538Z,5.13
2023-04-18T22:22:12.201Z,4.87
2023-04-18T22:24:39.415Z,4.85
2023-04-18T22:27:06.896Z,4.63
2023-04-18T22:29:34.106Z,5.20
2023-04-18T22:32:01.406Z,4.82
2023-04-18T22:34:28.674Z,5.13
2023-04-18T22:36:55.959Z,4.78
2023-04-18T22:39:24.336Z,4.80
2023-04-18T22:41:51.566Z,4.93
2023-04-18T22:44:18.782Z,4.63
2023-04-18T22:46:48.126Z,5.10
2023-04-18T22:49:15.649Z,5.70
2023-04-18T22:51:44.074Z,4.80
2023-04-18T22:54:11.387Z,5.00
2023-04-18T22:56:38.621Z,5.47
2023-04-18T22:59:05.872Z,5.50
2023-04-18T23:01:33.197Z,5.65
2023-04-18T23:04:00.638Z,5.57
2023-04-18T23:06:28.438Z,6.05
2023-04-18T23:08:55.891Z,5.40
2023-04-18T23:11:23.174Z,5.73
2023-04-18T23:13:50.458Z,6.07
2023-04-18T23:16:17.930Z,5.63
2023-04-18T23:18:45.141Z,5.40
2023-04-18T23:21:12.524Z,5.47
2023-04-18T23:23:39.725Z,5.77
2023-04-18T23:26:14.334Z,5.18
2023-04-18T23:28:42.374Z,5.85
2023-04-18T23:31:09.822Z,5.50
2023-04-18T23:33:37.542Z,5.53
2023-04-18T23:36:04.903Z,5.87
2023-04-18T23:38:32.485Z,5.45
2023-04-18T23:40:59.685Z,5.45
2023-04-18T23:43:27.051Z,6.20
2023-04-18T23:45:54.301Z,5.78
2023-04-18T23:48:21.620Z,5.73
2023-04-18T23:50:50.183Z,5.80
2023-04-18T23:53:17.609Z,6.18
2023-04-18T23:55:46.171Z,5.63
2023-04-18T23:58:14.108Z,5.82
